sensor_id;sensor_type;location;lat;lon;timestamp;temperature;humidity
19033;DHT22;9649;51.042;13.804;2023-07-13T00:01:17;22.70;1.00
19033;DHT22;9649;51.042;13.804;2023-07-13T00:06:20;22.70;1.00
19033;DHT22;9649;51.042;13.804;2023-07-13T00:11:22;22.50;1.00
19033;DHT22;9649;51.042;13.804;2023-07-13T00:16:27;22.40;1.00
19033;DHT22;9649;51.042;13.804;2023-07-13T00:21:29;22.40;1.00
19033;DHT22;9649;51.042;13.804;2023-07-13T00:26:32;22.60;99.90
19033;DHT22;9649;51.042;13.804;2023-07-13T00:31:45;22.60;99.90
19033;DHT22;9649;51.042;13.804;2023-07-13T00:36:48;22.60;99.90
19033;DHT22;9649;51.042;13.804;2023-07-13T00:41:51;22.80;99.90
19033;DHT22;9649;51.042;13.804;2023-07-13T00:46:55;22.00;45.80
19033;DHT22;9649;51.042;13.804;2023-07-13T00:52:03;21.70;99.90
19033;DHT22;9649;51.042;13.804;2023-07-13T00:57:10;21.50;99.90
19033;DHT22;9649;51.042;13.804;2023-07-13T01:02:15;21.70;1.00
19033;DHT22;9649;51.042;13.804;2023-07-13T01:07:18;21.40;99.90
19033;DHT22;9649;51.042;13.804;2023-07-13T01:12:21;20.50;99.90
19033;DHT22;9649;51.042;13.804;2023-07-13T01:17:26;20.10;1.00
19033;DHT22;9649;51.042;13.804;2023-07-13T01:22:30;20.00;1.00
19033;DHT22;9649;51.042;13.804;2023-07-13T01:27:34;19.70;1.00
19033;DHT22;9649;51.042;13.804;2023-07-13T01:32:37;19.30;35.10
19033;DHT22;9649;51.042;13.804;2023-07-13T01:37:44;19.20;25.10
19033;DHT22;9649;51.042;13.804;2023-07-13T01:42:47;19.40;1.00
19033;DHT22;9649;51.042;13.804;2023-07-13T01:47:50;19.40;1.70
19033;DHT22;9649;51.042;13.804;2023-07-13T01:52:54;19.30;48.50
19033;DHT22;9649;51.042;13.804;2023-07-13T01:57:57;19.70;1.00
19033;DHT22;9649;51.042;13.804;2023-07-13T02:03:00;19.90;1.00
19033;DHT22;9649;51.042;13.804;2023-07-13T02:08:04;19.90;1.00
19033;DHT22;9649;51.042;13.804;2023-07-13T02:13:07;19.90;1.00
19033;DHT22;9649;51.042;13.804;2023-07-13T02:18:10;19.80;2.70
19033;DHT22;9649;51.042;13.804;2023-07-13T02:23:14;19.70;19.20
19033;DHT22;9649;51.042;13.804;2023-07-13T02:28:16;19.40;98.90
19033;DHT22;9649;51.042;13.804;2023-07-13T02:33:19;19.40;89.70
19033;DHT22;9649;51.042;13.804;2023-07-13T02:38:23;19.40;93.60
19033;DHT22;9649;51.042;13.804;2023-07-13T02:43:26;19.40;41.40
19033;DHT22;9649;51.042;13.804;2023-07-13T02:48:29;19.50;57.50
19033;DHT22;9649;51.042;13.804;2023-07-13T02:53:33;19.40;37.40
19033;DHT22;9649;51.042;13.804;2023-07-13T02:58:37;19.30;30.00
19033;DHT22;9649;51.042;13.804;2023-07-13T03:03:40;19.10;67.00
19033;DHT22;9649;51.042;13.804;2023-07-13T03:08:44;19.10;82.60
19033;DHT22;9649;51.042;13.804;2023-07-13T03:13:48;19.20;1.00
19033;DHT22;9649;51.042;13.804;2023-07-13T03:18:50;19.20;11.00
19033;DHT22;9649;51.042;13.804;2023-07-13T03:23:55;19.20;12.30
19033;DHT22;9649;51.042;13.804;2023-07-13T03:28:57;19.30;1.00
19033;DHT22;9649;51.042;13.804;2023-07-13T03:34:00;19.20;1.00
19033;DHT22;9649;51.042;13.804;2023-07-13T03:39:05;19.30;1.00
19033;DHT22;9649;51.042;13.804;2023-07-13T03:44:11;19.40;1.00
19033;DHT22;9649;51.042;13.804;2023-07-13T03:49:14;19.30;1.00
19033;DHT22;9649;51.042;13.804;2023-07-13T03:54:18;19.20;1.00
19033;DHT22;9649;51.042;13.804;2023-07-13T03:59:21;19.00;50.20
19033;DHT22;9649;51.042;13.804;2023-07-13T04:04:24;19.00;99.90
19033;DHT22;9649;51.042;13.804;2023-07-13T04:09:28;19.20;1.00
19033;DHT22;9649;51.042;13.804;2023-07-13T04:14:31;19.20;1.00
19033;DHT22;9649;51.042;13.804;2023-07-13T04:19:34;19.40;1.00
19033;DHT22;9649;51.042;13.804;2023-07-13T04:24:38;19.70;1.00
19033;DHT22;9649;51.042;13.804;2023-07-13T04:29:41;20.10;1.00
19033;DHT22;9649;51.042;13.804;2023-07-13T04:34:44;20.50;99.90
19033;DHT22;9649;51.042;13.804;2023-07-13T04:39:48;20.50;1.00
19033;DHT22;9649;51.042;13.804;2023-07-13T04:44:51;20.50;1.00
19033;DHT22;9649;51.042;13.804;2023-07-13T04:49:54;20.70;1.00
19033;DHT22;9649;51.042;13.804;2023-07-13T04:54:59;20.70;1.00
19033;DHT22;9649;51.042;13.804;2023-07-13T05:00:03;20.70;1.00
19033;DHT22;9649;51.042;13.804;2023-07-13T05:05:08;20.70;16.40
19033;DHT22;9649;51.042;13.804;2023-07-13T05:10:12;20.70;99.90
19033;DHT22;9649;51.042;13.804;2023-07-13T05:15:15;20.90;9.00
19033;DHT22;9649;51.042;13.804;2023-07-13T05:20:22;21.20;1.00
19033;DHT22;9649;51.042;13.804;2023-07-13T05:25:26;21.60;99.90
19033;DHT22;9649;51.042;13.804;2023-07-13T05:30:29;21.60;99.90
19033;DHT22;9649;51.042;13.804;2023-07-13T05:35:31;22.00;1.00
19033;DHT22;9649;51.042;13.804;2023-07-13T05:40:35;22.40;99.90
19033;DHT22;9649;51.042;13.804;2023-07-13T05:45:38;22.50;1.00
19033;DHT22;9649;51.042;13.804;2023-07-13T05:50:41;22.50;1.00
19033;DHT22;9649;51.042;13.804;2023-07-13T05:55:46;22.50;1.00
19033;DHT22;9649;51.042;13.804;2023-07-13T06:00:59;22.30;99.90
19033;DHT22;9649;51.042;13.804;2023-07-13T06:06:04;22.20;60.00
19033;DHT22;9649;51.042;13.804;2023-07-13T06:11:13;22.60;1.00
19033;DHT22;9649;51.042;13.804;2023-07-13T06:16:17;22.80;1.00
19033;DHT22;9649;51.042;13.804;2023-07-13T06:21:21;22.80;21.60
19033;DHT22;9649;51.042;13.804;2023-07-13T06:26:26;22.60;1.00
19033;DHT22;9649;51.042;13.804;2023-07-13T06:31:29;22.50;1.00
19033;DHT22;9649;51.042;13.804;2023-07-13T06:36:32;22.60;1.00
19033;DHT22;9649;51.042;13.804;2023-07-13T06:41:36;23.20;1.00
19033;DHT22;9649;51.042;13.804;2023-07-13T06:46:40;23.80;1.00
19033;DHT22;9649;51.042;13.804;2023-07-13T06:51:43;24.10;1.00
19033;DHT22;9649;51.042;13.804;2023-07-13T06:56:47;24.40;94.00
19033;DHT22;9649;51.042;13.804;2023-07-13T07:01:49;25.00;35.70
19033;DHT22;9649;51.042;13.804;2023-07-13T07:06:52;24.90;1.00
19033;DHT22;9649;51.042;13.804;2023-07-13T07:12:01;24.90;85.40
19033;DHT22;9649;51.042;13.804;2023-07-13T07:17:05;24.60;1.00
19033;DHT22;9649;51.042;13.804;2023-07-13T07:22:08;25.40;1.00
19033;DHT22;9649;51.042;13.804;2023-07-13T07:27:12;26.50;1.00
19033;DHT22;9649;51.042;13.804;2023-07-13T07:32:19;26.80;1.00
19033;DHT22;9649;51.042;13.804;2023-07-13T07:37:25;26.10;1.00
19033;DHT22;9649;51.042;13.804;2023-07-13T07:42:49;25.80;1.00
19033;DHT22;9649;51.042;13.804;2023-07-13T07:47:51;25.80;1.00
19033;DHT22;9649;51.042;13.804;2023-07-13T07:52:56;26.10;1.00
19033;DHT22;9649;51.042;13.804;2023-07-13T07:58:00;26.50;1.00
19033;DHT22;9649;51.042;13.804;2023-07-13T08:03:06;26.80;1.00
19033;DHT22;9649;51.042;13.804;2023-07-13T08:08:12;26.90;1.00
19033;DHT22;9649;51.042;13.804;2023-07-13T08:13:17;26.90;1.00
19033;DHT22;9649;51.042;13.804;2023-07-13T08:18:20;27.20;1.00
19033;DHT22;9649;51.042;13.804;2023-07-13T08:23:23;27.20;1.00
19033;DHT22;9649;51.042;13.804;2023-07-13T08:28:27;26.70;1.00
19033;DHT22;9649;51.042;13.804;2023-07-13T08:33:31;26.70;1.00
19033;DHT22;9649;51.042;13.804;2023-07-13T08:38:33;26.90;99.90
19033;DHT22;9649;51.042;13.804;2023-07-13T08:43:38;27.30;99.90
19033;DHT22;9649;51.042;13.804;2023-07-13T08:48:44;28.20;99.90
19033;DHT22;9649;51.042;13.804;2023-07-13T08:53:49;29.00;99.90
19033;DHT22;9649;51.042;13.804;2023-07-13T08:58:56;29.80;99.90
19033;DHT22;9649;51.042;13.804;2023-07-13T09:04:05;30.60;99.90
19033;DHT22;9649;51.042;13.804;2023-07-13T09:09:16;30.00;99.90
19033;DHT22;9649;51.042;13.804;2023-07-13T09:14:34;29.50;99.90
19033;DHT22;9649;51.042;13.804;2023-07-13T09:19:40;29.80;99.90
19033;DHT22;9649;51.042;13.804;2023-07-13T09:24:52;32.20;99.90
19033;DHT22;9649;51.042;13.804;2023-07-13T09:30:03;33.60;99.90
19033;DHT22;9649;51.042;13.804;2023-07-13T09:35:10;37.70;99.90
19033;DHT22;9649;51.042;13.804;2023-07-13T09:40:18;36.00;99.90
19033;DHT22;9649;51.042;13.804;2023-07-13T09:45:29;33.80;99.90
19033;DHT22;9649;51.042;13.804;2023-07-13T09:50:32;34.90;99.90
19033;DHT22;9649;51.042;13.804;2023-07-13T09:55:37;35.60;99.90
19033;DHT22;9649;51.042;13.804;2023-07-13T10:00:42;32.50;99.90
19033;DHT22;9649;51.042;13.804;2023-07-13T10:05:47;31.00;99.90
19033;DHT22;9649;51.042;13.804;2023-07-13T10:10:58;33.90;99.90
19033;DHT22;9649;51.042;13.804;2023-07-13T10:16:04;37.80;99.90
19033;DHT22;9649;51.042;13.804;2023-07-13T10:21:12;39.10;99.90
19033;DHT22;9649;51.042;13.804;2023-07-13T10:26:23;38.70;99.90
19033;DHT22;9649;51.042;13.804;2023-07-13T10:31:30;37.60;93.20
19033;DHT22;9649;51.042;13.804;2023-07-13T10:36:39;38.80;88.50
19033;DHT22;9649;51.042;13.804;2023-07-13T10:41:44;40.10;70.20
19033;DHT22;9649;51.042;13.804;2023-07-13T10:46:49;38.50;94.20
19033;DHT22;9649;51.042;13.804;2023-07-13T10:51:52;37.90;70.50
19033;DHT22;9649;51.042;13.804;2023-07-13T10:57:15;39.00;57.90
19033;DHT22;9649;51.042;13.804;2023-07-13T11:02:26;38.50;59.30
19033;DHT22;9649;51.042;13.804;2023-07-13T11:07:31;39.10;56.50
19033;DHT22;9649;51.042;13.804;2023-07-13T11:12:54;41.20;43.80
19033;DHT22;9649;51.042;13.804;2023-07-13T11:18:02;39.20;38.30
19033;DHT22;9649;51.042;13.804;2023-07-13T11:23:27;41.70;29.90
19033;DHT22;9649;51.042;13.804;2023-07-13T11:28:31;43.90;13.90
19033;DHT22;9649;51.042;13.804;2023-07-13T11:33:56;43.80;1.00
19033;DHT22;9649;51.042;13.804;2023-07-13T11:39:03;43.30;1.00
19033;DHT22;9649;51.042;13.804;2023-07-13T11:44:12;44.40;1.00
19033;DHT22;9649;51.042;13.804;2023-07-13T11:49:18;43.60;1.00
19033;DHT22;9649;51.042;13.804;2023-07-13T11:54:26;41.80;1.00
19033;DHT22;9649;51.042;13.804;2023-07-13T11:59:30;42.30;1.00
19033;DHT22;9649;51.042;13.804;2023-07-13T12:04:36;43.30;1.00
19033;DHT22;9649;51.042;13.804;2023-07-13T12:09:40;43.20;1.00
19033;DHT22;9649;51.042;13.804;2023-07-13T12:14:43;40.60;1.00
19033;DHT22;9649;51.042;13.804;2023-07-13T12:19:47;42.30;1.00
19033;DHT22;9649;51.042;13.804;2023-07-13T12:24:51;39.40;1.00
19033;DHT22;9649;51.042;13.804;2023-07-13T12:29:58;36.60;7.40
19033;DHT22;9649;51.042;13.804;2023-07-13T12:35:14;38.20;5.30
19033;DHT22;9649;51.042;13.804;2023-07-13T12:40:19;41.30;1.00
19033;DHT22;9649;51.042;13.804;2023-07-13T12:45:25;42.80;1.00
19033;DHT22;9649;51.042;13.804;2023-07-13T12:50:37;39.20;1.00
19033;DHT22;9649;51.042;13.804;2023-07-13T12:55:46;35.00;1.00
19033;DHT22;9649;51.042;13.804;2023-07-13T13:00:50;36.30;9.80
19033;DHT22;9649;51.042;13.804;2023-07-13T13:06:00;38.90;4.40
19033;DHT22;9649;51.042;13.804;2023-07-13T13:11:04;37.00;1.00
19033;DHT22;9649;51.042;13.804;2023-07-13T13:16:09;36.20;1.40
19033;DHT22;9649;51.042;13.804;2023-07-13T13:21:17;37.20;4.90
19033;DHT22;9649;51.042;13.804;2023-07-13T13:26:22;39.80;1.00
19033;DHT22;9649;51.042;13.804;2023-07-13T13:31:25;41.70;1.00
19033;DHT22;9649;51.042;13.804;2023-07-13T13:36:29;41.30;1.00
19033;DHT22;9649;51.042;13.804;2023-07-13T13:41:32;38.40;1.00
19033;DHT22;9649;51.042;13.804;2023-07-13T13:46:35;39.60;1.00
19033;DHT22;9649;51.042;13.804;2023-07-13T13:51:40;40.70;1.00
19033;DHT22;9649;51.042;13.804;2023-07-13T13:56:43;41.00;1.00
19033;DHT22;9649;51.042;13.804;2023-07-13T14:01:47;39.70;1.00
19033;DHT22;9649;51.042;13.804;2023-07-13T14:06:52;38.60;1.00
19033;DHT22;9649;51.042;13.804;2023-07-13T14:11:55;37.10;1.00
19033;DHT22;9649;51.042;13.804;2023-07-13T14:16:58;36.20;1.00
19033;DHT22;9649;51.042;13.804;2023-07-13T14:22:03;38.90;1.00
19033;DHT22;9649;51.042;13.804;2023-07-13T14:27:08;39.30;1.00
19033;DHT22;9649;51.042;13.804;2023-07-13T14:32:12;38.70;1.00
19033;DHT22;9649;51.042;13.804;2023-07-13T14:37:17;39.20;1.00
19033;DHT22;9649;51.042;13.804;2023-07-13T14:42:19;39.90;1.00
19033;DHT22;9649;51.042;13.804;2023-07-13T14:47:22;38.20;1.00
19033;DHT22;9649;51.042;13.804;2023-07-13T14:52:27;37.50;1.00
19033;DHT22;9649;51.042;13.804;2023-07-13T14:57:29;37.30;1.00
19033;DHT22;9649;51.042;13.804;2023-07-13T15:02:34;37.40;1.00
19033;DHT22;9649;51.042;13.804;2023-07-13T15:07:40;36.00;1.00
19033;DHT22;9649;51.042;13.804;2023-07-13T15:12:43;36.20;1.00
19033;DHT22;9649;51.042;13.804;2023-07-13T15:17:47;35.10;1.00
19033;DHT22;9649;51.042;13.804;2023-07-13T15:22:52;35.80;1.00
19033;DHT22;9649;51.042;13.804;2023-07-13T15:27:56;36.60;1.00
19033;DHT22;9649;51.042;13.804;2023-07-13T15:33:05;34.30;1.00
19033;DHT22;9649;51.042;13.804;2023-07-13T15:38:18;31.90;11.20
19033;DHT22;9649;51.042;13.804;2023-07-13T15:43:22;31.50;14.70
19033;DHT22;9649;51.042;13.804;2023-07-13T15:48:26;31.40;15.70
19033;DHT22;9649;51.042;13.804;2023-07-13T15:53:32;32.30;15.70
19033;DHT22;9649;51.042;13.804;2023-07-13T15:58:36;32.70;11.90
19033;DHT22;9649;51.042;13.804;2023-07-13T16:03:40;32.80;10.50
19033;DHT22;9649;51.042;13.804;2023-07-13T16:08:45;33.70;7.20
19033;DHT22;9649;51.042;13.804;2023-07-13T16:13:49;33.90;7.40
19033;DHT22;9649;51.042;13.804;2023-07-13T16:18:58;34.20;2.40
19033;DHT22;9649;51.042;13.804;2023-07-13T16:24:03;33.60;3.10
19033;DHT22;9649;51.042;13.804;2023-07-13T16:29:14;32.10;5.00
19033;DHT22;9649;51.042;13.804;2023-07-13T16:34:18;31.90;8.20
19033;DHT22;9649;51.042;13.804;2023-07-13T16:39:22;31.40;9.20
19033;DHT22;9649;51.042;13.804;2023-07-13T16:44:32;31.60;12.10
19033;DHT22;9649;51.042;13.804;2023-07-13T16:49:37;32.10;1.60
19033;DHT22;9649;51.042;13.804;2023-07-13T16:54:41;32.20;9.10
19033;DHT22;9649;51.042;13.804;2023-07-13T16:59:44;31.00;10.50
19033;DHT22;9649;51.042;13.804;2023-07-13T17:04:47;31.00;12.40
19033;DHT22;9649;51.042;13.804;2023-07-13T17:09:52;30.20;16.60
19033;DHT22;9649;51.042;13.804;2023-07-13T17:14:55;29.40;19.90
19033;DHT22;9649;51.042;13.804;2023-07-13T17:19:58;28.40;25.70
19033;DHT22;9649;51.042;13.804;2023-07-13T17:25:05;28.00;30.00
19033;DHT22;9649;51.042;13.804;2023-07-13T17:30:16;27.90;34.20
19033;DHT22;9649;51.042;13.804;2023-07-13T17:35:23;28.80;32.80
19033;DHT22;9649;51.042;13.804;2023-07-13T17:40:29;28.80;32.90
19033;DHT22;9649;51.042;13.804;2023-07-13T17:45:32;28.70;33.30
19033;DHT22;9649;51.042;13.804;2023-07-13T17:50:35;28.70;35.60
19033;DHT22;9649;51.042;13.804;2023-07-13T17:55:40;28.60;36.20
19033;DHT22;9649;51.042;13.804;2023-07-13T18:00:44;28.70;35.60
19033;DHT22;9649;51.042;13.804;2023-07-13T18:05:50;28.50;38.60
19033;DHT22;9649;51.042;13.804;2023-07-13T18:10:57;28.60;36.90
19033;DHT22;9649;51.042;13.804;2023-07-13T18:16:00;28.40;38.60
19033;DHT22;9649;51.042;13.804;2023-07-13T18:21:03;28.10;42.60
19033;DHT22;9649;51.042;13.804;2023-07-13T18:26:10;27.60;73.40
19033;DHT22;9649;51.042;13.804;2023-07-13T18:31:16;27.50;50.80
19033;DHT22;9649;51.042;13.804;2023-07-13T18:36:22;27.50;53.50
19033;DHT22;9649;51.042;13.804;2023-07-13T18:41:26;27.10;58.50
19033;DHT22;9649;51.042;13.804;2023-07-13T18:46:30;26.50;60.90
19033;DHT22;9649;51.042;13.804;2023-07-13T18:51:35;26.00;72.30
19033;DHT22;9649;51.042;13.804;2023-07-13T18:56:39;25.50;79.00
19033;DHT22;9649;51.042;13.804;2023-07-13T19:01:42;25.20;87.90
19033;DHT22;9649;51.042;13.804;2023-07-13T19:06:46;24.90;93.40
19033;DHT22;9649;51.042;13.804;2023-07-13T19:11:52;24.60;99.10
19033;DHT22;9649;51.042;13.804;2023-07-13T19:16:55;24.40;99.90
19033;DHT22;9649;51.042;13.804;2023-07-13T19:21:58;24.20;99.90
19033;DHT22;9649;51.042;13.804;2023-07-13T19:27:07;23.90;99.90
19033;DHT22;9649;51.042;13.804;2023-07-13T19:32:12;23.60;99.90
19033;DHT22;9649;51.042;13.804;2023-07-13T19:37:20;23.40;99.90
19033;DHT22;9649;51.042;13.804;2023-07-13T19:42:25;23.30;99.90
19033;DHT22;9649;51.042;13.804;2023-07-13T19:47:29;23.00;99.90
19033;DHT22;9649;51.042;13.804;2023-07-13T19:52:32;22.90;99.90
19033;DHT22;9649;51.042;13.804;2023-07-13T19:57:37;22.80;99.90
19033;DHT22;9649;51.042;13.804;2023-07-13T20:02:40;22.70;99.90
19033;DHT22;9649;51.042;13.804;2023-07-13T20:07:43;22.60;99.90
19033;DHT22;9649;51.042;13.804;2023-07-13T20:12:52;22.40;99.90
19033;DHT22;9649;51.042;13.804;2023-07-13T20:17:56;22.30;99.90
19033;DHT22;9649;51.042;13.804;2023-07-13T20:23:00;22.10;99.90
19033;DHT22;9649;51.042;13.804;2023-07-13T20:28:05;21.90;99.90
19033;DHT22;9649;51.042;13.804;2023-07-13T20:33:12;21.70;99.90
19033;DHT22;9649;51.042;13.804;2023-07-13T20:38:17;21.50;99.90
19033;DHT22;9649;51.042;13.804;2023-07-13T20:43:22;21.40;1.00
19033;DHT22;9649;51.042;13.804;2023-07-13T20:48:33;21.30;1.00
19033;DHT22;9649;51.042;13.804;2023-07-13T20:53:38;21.10;1.00
19033;DHT22;9649;51.042;13.804;2023-07-13T20:58:43;20.90;1.00
19033;DHT22;9649;51.042;13.804;2023-07-13T21:03:46;20.80;1.00
19033;DHT22;9649;51.042;13.804;2023-07-13T21:08:50;20.80;1.00
19033;DHT22;9649;51.042;13.804;2023-07-13T21:13:55;20.80;1.00
19033;DHT22;9649;51.042;13.804;2023-07-13T21:18:58;20.80;1.00
19033;DHT22;9649;51.042;13.804;2023-07-13T21:24:01;20.70;99.90
19033;DHT22;9649;51.042;13.804;2023-07-13T21:29:05;20.50;99.90
19033;DHT22;9649;51.042;13.804;2023-07-13T21:34:13;20.30;99.90
19033;DHT22;9649;51.042;13.804;2023-07-13T21:39:18;20.50;1.00
19033;DHT22;9649;51.042;13.804;2023-07-13T21:44:26;20.70;1.00
19033;DHT22;9649;51.042;13.804;2023-07-13T21:49:29;20.80;1.00
19033;DHT22;9649;51.042;13.804;2023-07-13T21:54:32;20.80;1.00
19033;DHT22;9649;51.042;13.804;2023-07-13T21:59:36;20.80;1.00
19033;DHT22;9649;51.042;13.804;2023-07-13T22:04:39;20.80;1.00
19033;DHT22;9649;51.042;13.804;2023-07-13T22:09:42;20.70;1.00
19033;DHT22;9649;51.042;13.804;2023-07-13T22:14:46;20.60;1.00
19033;DHT22;9649;51.042;13.804;2023-07-13T22:19:49;20.40;1.00
19033;DHT22;9649;51.042;13.804;2023-07-13T22:24:53;20.20;1.00
19033;DHT22;9649;51.042;13.804;2023-07-13T22:29:57;20.00;1.00
19033;DHT22;9649;51.042;13.804;2023-07-13T22:35:00;19.90;1.00
19033;DHT22;9649;51.042;13.804;2023-07-13T22:40:09;19.90;1.00
19033;DHT22;9649;51.042;13.804;2023-07-13T22:45:14;19.70;83.80
19033;DHT22;9649;51.042;13.804;2023-07-13T22:50:17;19.60;99.90
19033;DHT22;9649;51.042;13.804;2023-07-13T22:55:21;19.60;99.90
19033;DHT22;9649;51.042;13.804;2023-07-13T23:00:25;19.60;99.90
19033;DHT22;9649;51.042;13.804;2023-07-13T23:05:28;19.60;99.90
19033;DHT22;9649;51.042;13.804;2023-07-13T23:10:32;19.50;99.90
19033;DHT22;9649;51.042;13.804;2023-07-13T23:15:36;19.40;99.90
19033;DHT22;9649;51.042;13.804;2023-07-13T23:20:39;19.40;99.90
19033;DHT22;9649;51.042;13.804;2023-07-13T23:25:43;19.40;99.90
19033;DHT22;9649;51.042;13.804;2023-07-13T23:30:48;19.40;99.90
19033;DHT22;9649;51.042;13.804;2023-07-13T23:35:54;19.30;1.00
19033;DHT22;9649;51.042;13.804;2023-07-13T23:41:00;19.30;1.00
19033;DHT22;9649;51.042;13.804;2023-07-13T23:46:08;19.10;1.00
19033;DHT22;9649;51.042;13.804;2023-07-13T23:51:24;19.10;1.00
19033;DHT22;9649;51.042;13.804;2023-07-13T23:56:27;19.00;99.90
